BDA weather

L.F. Wade International International Airport
Hamilton, Bermuda

Public forecast

Using degrees Celsius for public forecast. Weather courtesy of forecast.io.

Current aviation weather report (METAR) for L.F. Wade International International Airport

Retrieved 2019/10/22 08:55 UTC (46 minutes ago):

TXKF 220855Z 20021KT 9999 VCSH BKN017 BKN068 BKN100 25/22 Q1013

Aviation forecast (TAF) for L.F. Wade International International Airport

Retrieved 2019/10/22 06:55 UTC (3 hours ago):

TAF TXKF 220544Z 2206/2306 21020KT 9999 VCSH SCT015 BKN040 BECMG 2208/2210 22018KT 8000 -SHRA BKN014 PROB40 TEMPO 2208/2213 3200 SHRA BKN012 BECMG 2213/2215 23010KT 9999 VCSH SCT012 BKN018